Time;durP1;ratioP1;P1;durP2;ratioP2;P2;SDS_P1;SDS_P2;PMS_P1;PMS_P2;Temp;Humidity;BMP_temperature;BMP_pressure;BME280_temperature;BME280_humidity;BME280_pressure;Samples;Min_cycle;Max_cycle;Signal;HPM_P1;HPM_P2
2021/12/20 01:02:28;;;;;;;3.75;2.35;;;3.50;99.90;;;;;;5029569;23;20043;-83
2021/12/20 01:04:54;;;;;;;4.38;2.22;;;3.40;99.90;;;;;;5002729;28;20050;-79
2021/12/20 02:04:46;;;;;;;5.80;3.42;;;1.90;99.90;;;;;;5036827;23;20294;-83
2021/12/20 02:07:34;;;;;;;7.85;3.80;;;1.80;99.90;;;;;;5000248;28;20035;-84
2021/12/20 02:09:58;;;;;;;4.00;1.92;;;1.80;99.90;;;;;;4998828;28;20022;-83
2021/12/20 02:12:24;;;;;;;;;;;1.70;99.90;;;;;;4998300;28;20034;-83
2021/12/20 02:14:49;;;;;;;9.65;3.30;;;1.70;99.90;;;;;;4980075;28;19910;-83
2021/12/20 02:17:15;;;;;;;;;;;1.70;99.90;;;;;;4981246;28;20077;-83
2021/12/20 02:19:41;;;;;;;14.65;5.22;;;1.70;99.90;;;;;;4998748;28;19917;-83
2021/12/20 02:22:07;;;;;;;;;;;1.60;99.90;;;;;;5000516;28;20007;-81
2021/12/20 02:24:32;;;;;;;8.70;4.03;;;1.60;99.90;;;;;;5001201;28;19901;-81
2021/12/20 02:26:58;;;;;;;;;;;1.80;99.90;;;;;;5001595;28;20029;-79
2021/12/20 02:29:40;;;;;;;5.90;2.80;;;1.60;99.90;;;;;;4984403;28;19984;-79
2021/12/20 02:37:35;;;;;;;4.72;1.90;;;1.40;99.90;;;;;;5001056;28;20083;-81
2021/12/20 02:40:01;;;;;;;;;;;1.40;99.90;;;;;;5000917;28;20339;-84
2021/12/20 02:42:33;;;;;;;4.50;0.88;;;1.40;99.90;;;;;;5000712;28;19901;-82
2021/12/20 02:45:12;;;;;;;4.15;1.58;;;1.50;99.90;;;;;;5000888;28;20026;-83
2021/12/20 02:47:44;;;;;;;7.53;2.60;;;1.30;99.90;;;;;;4984146;28;20015;-82
2021/12/20 02:50:11;;;;;;;17.60;7.00;;;1.50;99.90;;;;;;5000750;28;20043;-82
2021/12/20 02:52:37;;;;;;;31.40;11.82;;;1.50;99.90;;;;;;5000138;28;20015;-83
2021/12/20 02:55:04;;;;;;;;;;;1.50;99.90;;;;;;5000505;28;20030;-82
2021/12/20 02:57:29;;;;;;;22.52;8.32;;;1.60;99.90;;;;;;4983342;28;19894;-82
2021/12/20 02:59:55;;;;;;;;;;;1.60;99.90;;;;;;5000533;28;20038;-82
2021/12/20 03:02:22;;;;;;;11.98;2.97;;;1.70;99.90;;;;;;4983535;28;19983;-78
2021/12/20 03:04:49;;;;;;;8.32;4.00;;;1.60;99.90;;;;;;4983722;28;20078;-84
2021/12/20 03:07:21;;;;;;;8.45;3.35;;;1.70;99.90;;;;;;5000408;28;20014;-82
2021/12/20 03:09:52;;;;;;;6.05;2.05;;;1.60;99.90;;;;;;5000110;28;20007;-82
2021/12/20 03:12:18;;;;;;;7.03;1.80;;;1.50;99.90;;;;;;4983652;28;20010;-83
2021/12/20 03:14:47;;;;;;;;;;;1.70;99.90;;;;;;4981891;28;20027;-83
2021/12/20 03:17:13;;;;;;;7.63;1.80;;;1.60;99.90;;;;;;4983433;28;19910;-84
2021/12/20 03:19:40;;;;;;;4.13;1.63;;;1.70;99.90;;;;;;4999863;28;20021;-83
2021/12/20 03:22:09;;;;;;;10.65;3.25;;;1.90;99.90;;;;;;4981039;28;20015;-83
2021/12/20 03:24:35;;;;;;;8.43;1.92;;;1.90;99.90;;;;;;4997877;28;20086;-83
2021/12/20 03:27:01;;;;;;;7.00;1.60;;;1.80;99.90;;;;;;4998140;28;20026;-83
2021/12/20 03:29:27;;;;;;;;;;;1.90;99.90;;;;;;4996988;28;20047;-82
2021/12/20 03:31:53;;;;;;;5.78;1.75;;;1.80;99.90;;;;;;4993004;28;19909;-81
2021/12/20 03:34:18;;;;;;;;;;;1.90;99.90;;;;;;4976203;28;20582;-82
2021/12/20 03:36:45;;;;;;;5.47;1.50;;;1.80;99.90;;;;;;4976651;28;20004;-82
2021/12/20 03:39:11;;;;;;;4.80;1.58;;;1.90;99.90;;;;;;4993641;28;20030;-83
2021/12/20 03:41:37;;;;;;;;;;;1.90;99.90;;;;;;4977233;28;20047;-82
2021/12/20 03:44:05;;;;;;;8.00;2.35;;;2.00;99.90;;;;;;4976828;28;20306;-82
2021/12/20 03:46:31;;;;;;;3.70;1.33;;;2.00;99.90;;;;;;4996418;28;20026;-84
2021/12/20 03:48:56;;;;;;;;;;;1.90;99.90;;;;;;4979321;28;20011;-83
2021/12/20 03:51:22;;;;;;;3.88;1.23;;;2.00;99.20;;;;;;4979545;28;19905;-83
2021/12/20 03:53:48;;;;;;;3.92;0.70;;;1.90;99.70;;;;;;4976813;28;20023;-82
2021/12/20 03:56:14;;;;;;;2.33;0.77;;;1.90;99.90;;;;;;4993460;28;20039;-83
2021/12/20 03:58:40;;;;;;;;;;;1.90;99.90;;;;;;4997179;28;20040;-83
2021/12/20 04:01:10;;;;;;;2.25;0.73;;;1.70;99.90;;;;;;4981180;28;19894;-83
2021/12/20 04:03:36;;;;;;;4.65;1.08;;;1.80;99.90;;;;;;4980484;28;20099;-84
2021/12/20 04:06:04;;;;;;;2.40;0.80;;;1.80;99.90;;;;;;4979588;28;20042;-84
2021/12/20 04:08:30;;;;;;;5.70;1.77;;;1.70;99.60;;;;;;4996360;28;20046;-81
2021/12/20 04:10:57;;;;;;;;;;;1.80;99.40;;;;;;4994862;28;20039;-83
2021/12/20 04:13:23;;;;;;;2.63;0.90;;;1.80;98.00;;;;;;4977571;28;20054;-84
2021/12/20 04:15:49;;;;;;;4.43;1.27;;;1.70;97.80;;;;;;4994940;28;20030;-82
2021/12/20 04:18:15;;;;;;;;;;;1.80;97.10;;;;;;4978891;28;20046;-83
2021/12/20 04:20:40;;;;;;;4.57;1.20;;;1.80;97.00;;;;;;4977918;28;19906;-83
2021/12/20 04:23:06;;;;;;;;;;;1.80;97.80;;;;;;4978793;28;20034;-84
2021/12/20 04:25:32;;;;;;;3.05;0.95;;;1.80;97.30;;;;;;4995087;28;19921;-82
2021/12/20 04:27:58;;;;;;;4.65;1.20;;;1.70;97.90;;;;;;4994439;28;20030;-83
2021/12/20 04:30:28;;;;;;;;;;;1.60;98.40;;;;;;4995081;28;20026;-83
2021/12/20 04:32:54;;;;;;;2.70;0.75;;;1.60;96.60;;;;;;4994938;28;19910;-84
2021/12/20 04:35:20;;;;;;;5.30;1.38;;;1.60;97.10;;;;;;4994838;28;20033;-83
2021/12/20 04:37:48;;;;;;;;;;;1.60;97.10;;;;;;4995019;28;20023;-84
2021/12/20 04:40:20;;;;;;;7.63;2.35;;;1.60;97.40;;;;;;4994712;28;19910;-84
2021/12/20 04:42:47;;;;;;;8.43;3.47;;;1.50;97.80;;;;;;4978185;28;20011;-83
2021/12/20 04:45:13;;;;;;;9.35;2.67;;;1.40;98.60;;;;;;4979076;28;20035;-84
2021/12/20 04:47:40;;;;;;;5.35;2.03;;;1.50;97.40;;;;;;4980825;28;20013;-82
2021/12/20 04:50:07;;;;;;;3.45;1.30;;;1.40;98.10;;;;;;4980733;28;20054;-83
2021/12/20 04:52:32;;;;;;;5.07;2.17;;;1.40;98.50;;;;;;4997199;28;20027;-83
2021/12/20 04:54:58;;;;;;;;;;;1.40;98.90;;;;;;4997254;28;20038;-83
2021/12/20 04:57:24;;;;;;;10.55;3.03;;;1.20;99.00;;;;;;4980453;28;19949;-83
2021/12/20 04:59:50;;;;;;;;;;;1.10;98.70;;;;;;4981858;28;20022;-82
2021/12/20 05:02:16;;;;;;;12.18;3.65;;;1.10;98.50;;;;;;4980473;28;20020;-81
2021/12/20 05:04:44;;;;;;;;;;;1.10;98.50;;;;;;4999885;28;20070;-82
2021/12/20 05:07:10;;;;;;;8.52;3.00;;;1.00;98.90;;;;;;4999026;28;19890;-82
2021/12/20 05:09:39;;;;;;;;;;;1.10;99.20;;;;;;4998756;28;20106;-83
2021/12/20 05:12:14;;;;;;;8.80;2.40;;;1.10;99.00;;;;;;4985576;28;19901;-83
2021/12/20 05:14:44;;;;;;;8.07;2.95;;;1.10;99.70;;;;;;5002441;28;20014;-84
2021/12/20 05:17:12;;;;;;;9.52;3.50;;;1.10;99.60;;;;;;4983733;28;20047;-82
2021/12/20 05:19:38;;;;;;;9.27;2.97;;;1.00;99.90;;;;;;4985097;28;20106;-81
2021/12/20 05:22:05;;;;;;;7.78;2.58;;;1.10;99.80;;;;;;4984906;28;20076;-83
2021/12/20 05:24:31;;;;;;;5.00;1.80;;;1.00;99.90;;;;;;4984058;28;20034;-81
2021/12/20 05:26:56;;;;;;;;;;;1.10;99.90;;;;;;4984808;28;20034;-81
2021/12/20 05:29:24;;;;;;;3.90;1.45;;;1.00;99.80;;;;;;4985876;28;19917;-81
2021/12/20 05:31:50;;;;;;;4.85;1.67;;;1.10;99.90;;;;;;5000757;28;20030;-77
2021/12/20 05:34:16;;;;;;;6.32;1.98;;;1.00;99.90;;;;;;5002200;28;20019;-80
2021/12/20 05:36:42;;;;;;;8.02;2.70;;;1.20;99.90;;;;;;5000395;28;20031;-83
2021/12/20 05:39:08;;;;;;;;;;;1.10;99.90;;;;;;5001640;28;20018;-81
2021/12/20 05:41:34;;;;;;;5.00;1.65;;;1.10;99.90;;;;;;4985065;28;19901;-82
2021/12/20 05:43:59;;;;;;;;;;;1.00;99.90;;;;;;4982084;28;20041;-78
2021/12/20 05:46:25;;;;;;;10.93;2.60;;;1.00;99.90;;;;;;4996584;28;19906;-83
2021/12/20 05:48:51;;;;;;;2.30;0.50;;;0.90;99.90;;;;;;4999072;28;20018;-83
2021/12/20 05:53:52;;;;;;;2.42;0.80;;;0.90;99.90;;;;;;5544833;23;19945;-82
2021/12/20 05:56:18;;;;;;;;;;;0.90;99.90;;;;;;4981371;28;20027;-82
2021/12/20 05:58:44;;;;;;;3.25;0.50;;;0.80;99.90;;;;;;4998008;28;19929;-82
2021/12/20 06:01:09;;;;;;;;;;;0.80;99.90;;;;;;4997565;28;20037;-83
2021/12/20 06:03:35;;;;;;;5.20;2.03;;;0.80;99.90;;;;;;4997575;28;19895;-83
2021/12/20 06:06:01;;;;;;;;;;;0.70;99.90;;;;;;4998189;28;20027;-83
2021/12/20 06:08:27;;;;;;;3.05;0.45;;;0.80;99.90;;;;;;4997171;28;19910;-83
2021/12/20 06:10:52;;;;;;;;;;;0.70;99.90;;;;;;4981742;28;20027;-83
2021/12/20 06:13:19;;;;;;;6.03;2.28;;;0.80;99.90;;;;;;4980470;28;19914;-82
2021/12/20 06:15:45;;;;;;;6.50;2.75;;;0.70;99.90;;;;;;4982322;28;20034;-84
2021/12/20 06:18:10;;;;;;;;;;;0.60;99.90;;;;;;4983569;28;20054;-84
2021/12/20 06:20:38;;;;;;;4.32;1.70;;;0.50;99.90;;;;;;4999953;28;19906;-83
2021/12/20 06:23:04;;;;;;;4.03;1.50;;;0.50;99.90;;;;;;4999941;28;20005;-84
2021/12/20 06:25:29;;;;;;;;;;;0.40;99.90;;;;;;4983872;28;20058;-82
2021/12/20 06:27:55;;;;;;;6.47;2.15;;;0.30;99.90;;;;;;4982758;28;19910;-83
2021/12/20 06:30:21;;;;;;;;;;;0.30;99.90;;;;;;5000316;28;20027;-84
2021/12/20 06:32:47;;;;;;;6.28;1.65;;;0.20;99.90;;;;;;5000725;28;19895;-82
2021/12/20 06:35:13;;;;;;;;;;;0.10;99.90;;;;;;5000817;28;20043;-82
2021/12/20 06:37:42;;;;;;;2.28;0.40;;;0.10;99.90;;;;;;5000761;28;19894;-81
2021/12/20 06:40:09;;;;;;;2.22;0.50;;;0.10;99.90;;;;;;4984073;28;20074;-84
2021/12/20 06:42:37;;;;;;;3.33;1.10;;;0.20;99.90;;;;;;4984071;28;20030;-82
2021/12/20 06:45:07;;;;;;;5.60;1.98;;;0.20;99.90;;;;;;4984016;28;20014;-83
2021/12/20 06:47:34;;;;;;;3.85;1.50;;;0.20;99.90;;;;;;4984086;28;20098;-86
2021/12/20 06:50:00;;;;;;;6.18;3.47;;;0.30;99.90;;;;;;4984151;28;20007;-82
2021/12/20 06:52:26;;;;;;;;;;;0.10;99.90;;;;;;5000878;28;20019;-83
2021/12/20 06:54:52;;;;;;;4.97;2.50;;;0.10;99.90;;;;;;4980377;28;19987;-83
2021/12/20 06:57:20;;;;;;;;;;;0.10;99.90;;;;;;4981057;28;20007;-82
2021/12/20 06:59:46;;;;;;;7.72;3.67;;;0.00;99.90;;;;;;4981018;28;19971;-83
2021/12/20 07:02:12;;;;;;;5.97;2.60;;;0.00;99.90;;;;;;4980946;28;20079;-83
2021/12/20 07:04:40;;;;;;;;;;;0.00;99.90;;;;;;4981523;28;20011;-84
2021/12/20 07:07:06;;;;;;;4.35;1.58;;;0.00;99.90;;;;;;4980739;28;19894;-83
2021/12/20 07:09:32;;;;;;;;;;;0.00;99.90;;;;;;4980723;28;20059;-83
2021/12/20 07:11:57;;;;;;;4.45;1.10;;;0.00;99.90;;;;;;4980243;28;19901;-83
2021/12/20 07:14:27;;;;;;;;;;;0.00;99.90;;;;;;4981275;28;20070;-82
2021/12/20 07:16:57;;;;;;;7.10;1.00;;;0.20;99.90;;;;;;4980825;28;19918;-83
2021/12/20 07:19:23;;;;;;;3.17;1.52;;;0.50;99.90;;;;;;4980402;28;20015;-82
2021/12/20 07:21:49;;;;;;;3.67;1.13;;;0.90;99.90;;;;;;4980062;28;20035;-81
2021/12/20 07:24:15;;;;;;;;;;;1.10;99.90;;;;;;4980445;28;20086;-84
2021/12/20 07:26:44;;;;;;;6.80;2.28;;;1.50;99.90;;;;;;4980183;28;19950;-84
2021/12/20 07:29:11;;;;;;;5.50;1.55;;;1.90;99.90;;;;;;4980747;28;20035;-83
2021/12/20 07:31:37;;;;;;;3.67;1.20;;;2.00;99.90;;;;;;4980375;28;20078;-83
2021/12/20 07:34:02;;;;;;;;;;;2.10;99.90;;;;;;4980638;28;20018;-83
2021/12/20 07:36:28;;;;;;;2.40;0.90;;;2.10;99.90;;;;;;4980029;28;19898;-83
2021/12/20 07:38:55;;;;;;;;;;;2.30;99.90;;;;;;4979856;28;20011;-83
2021/12/20 07:41:22;;;;;;;1.98;0.82;;;2.40;99.90;;;;;;4979552;28;19901;-83
2021/12/20 07:43:50;;;;;;;3.72;0.80;;;2.50;99.90;;;;;;4980262;28;20047;-83
2021/12/20 07:46:20;;;;;;;4.90;1.58;;;2.80;99.90;;;;;;4980030;28;20012;-84
2021/12/20 07:48:46;;;;;;;4.07;0.90;;;3.00;99.90;;;;;;4979482;28;20087;-84
2021/12/20 07:51:11;;;;;;;;;;;3.30;99.90;;;;;;4980003;28;20016;-82
2021/12/20 07:53:39;;;;;;;2.88;0.70;;;3.50;99.90;;;;;;4988340;28;19922;-84
2021/12/20 07:56:05;;;;;;;2.92;0.68;;;3.70;98.70;;;;;;4983337;28;20051;-80
2021/12/20 07:58:31;;;;;;;;;;;3.80;98.50;;;;;;4983645;28;20075;-79
2021/12/20 08:00:58;;;;;;;2.30;0.82;;;4.00;97.30;;;;;;4999869;28;19917;-84
2021/12/20 10:24:09;;;;;;;0.75;0.32;;;5.10;77.00;;;;;;6018718;23;20194;-78
2021/12/20 10:26:38;;;;;;;;;;;5.10;74.60;;;;;;4984656;28;20047;-85
2021/12/20 10:29:19;;;;;;;5.72;1.73;;;5.10;76.20;;;;;;5000731;28;19917;-84
2021/12/20 10:31:46;;;;;;;3.85;1.30;;;5.00;77.50;;;;;;4984768;28;20014;-81
2021/12/20 10:34:13;;;;;;;5.93;2.13;;;5.00;77.10;;;;;;5001375;28;20017;-84
2021/12/20 10:36:53;;;;;;;4.45;1.15;;;5.10;74.50;;;;;;4984666;28;20125;-82
2021/12/20 10:39:32;;;;;;;2.53;0.70;;;5.10;76.50;;;;;;5000812;28;20090;-86
2021/12/20 10:42:24;;;;;;;4.88;1.80;;;5.20;75.80;;;;;;5000933;28;20017;-84
2021/12/20 10:45:14;;;;;;;10.45;4.45;;;5.10;79.30;;;;;;4999138;28;20018;-85
2021/12/20 10:47:41;;;;;;;2.55;0.85;;;5.00;81.20;;;;;;5001206;28;20041;-77
2021/12/20 10:50:29;;;;;;;5.78;2.25;;;5.10;80.90;;;;;;5001152;28;20057;-84
2021/12/20 10:53:11;;;;;;;1.58;0.50;;;5.10;82.00;;;;;;5001213;28;20062;-76
2021/12/20 10:55:45;;;;;;;1.48;0.60;;;5.20;78.70;;;;;;4983788;28;20038;-77
2021/12/20 10:58:33;;;;;;;1.42;0.47;;;5.10;77.80;;;;;;4984339;28;20030;-82
2021/12/20 11:01:16;;;;;;;2.58;0.43;;;5.20;79.70;;;;;;5000868;28;20015;-81
2021/12/20 21:19:59;;;;;;;3.65;1.27;;;0.40;99.90;;;;;;5962857;23;20030;-83
2021/12/20 21:22:25;;;;;;;7.07;2.30;;;0.50;99.90;;;;;;5020876;28;20026;-82
2021/12/20 21:24:51;;;;;;;;;;;0.50;99.90;;;;;;5022090;28;20053;-80
2021/12/20 21:27:17;;;;;;;12.32;4.90;;;0.30;99.90;;;;;;5021073;28;19894;-83
2021/12/20 21:29:43;;;;;;;11.88;4.78;;;0.30;99.90;;;;;;5021690;28;20041;-82
2021/12/20 21:32:09;;;;;;;;;;;0.30;99.90;;;;;;5021088;28;20023;-84
2021/12/20 21:34:35;;;;;;;12.05;4.13;;;0.20;99.90;;;;;;5021835;28;19909;-83
2021/12/20 21:37:01;;;;;;;8.45;2.90;;;0.20;99.90;;;;;;5021730;28;20019;-84
2021/12/20 21:39:27;;;;;;;;;;;0.30;99.90;;;;;;5021297;28;20034;-82
2021/12/20 21:41:54;;;;;;;8.18;2.83;;;0.20;99.90;;;;;;5016305;28;19921;-82
2021/12/20 21:44:20;;;;;;;3.72;1.60;;;0.30;99.90;;;;;;5019833;28;20010;-82
2021/12/20 21:46:46;;;;;;;4.65;2.30;;;0.30;99.90;;;;;;5020089;28;20018;-82
2021/12/20 21:49:11;;;;;;;;;;;0.30;99.90;;;;;;5019871;28;20034;-83
2021/12/20 21:51:38;;;;;;;6.05;2.53;;;0.40;99.90;;;;;;5017228;28;19897;-82
2021/12/20 21:54:04;;;;;;;5.72;2.25;;;0.30;99.90;;;;;;5015206;28;20109;-80
2021/12/20 21:56:30;;;;;;;28.25;10.15;;;0.40;99.90;;;;;;5015281;28;20040;-80
2021/12/20 21:58:56;;;;;;;;;;;0.30;99.90;;;;;;5016333;28;20399;-81
2021/12/20 22:01:22;;;;;;;9.70;3.60;;;0.40;99.90;;;;;;5018845;28;19910;-81
2021/12/20 22:03:48;;;;;;;;;;;0.30;99.90;;;;;;5021281;28;20093;-83
2021/12/20 22:06:14;;;;;;;5.75;1.95;;;0.30;99.90;;;;;;5019465;28;19910;-83
2021/12/20 22:08:40;;;;;;;;;;;0.40;99.90;;;;;;5021525;28;20057;-84
2021/12/20 22:11:06;;;;;;;5.63;1.83;;;0.40;99.90;;;;;;5021295;28;19893;-81
2021/12/20 22:13:32;;;;;;;;;;;0.50;99.90;;;;;;5021452;28;20053;-82
2021/12/20 22:15:58;;;;;;;9.18;3.03;;;0.50;99.90;;;;;;5020792;28;19914;-83
2021/12/20 22:18:24;;;;;;;;;;;0.50;99.90;;;;;;5020807;28;20041;-80
2021/12/20 22:20:50;;;;;;;11.65;4.30;;;0.50;99.90;;;;;;5020893;28;19969;-81
2021/12/20 22:23:20;;;;;;;;;;;0.50;99.90;;;;;;5020960;28;20014;-80
2021/12/20 22:25:46;;;;;;;8.55;3.88;;;0.50;99.90;;;;;;5021100;28;19894;-83
2021/12/20 22:28:12;;;;;;;;;;;0.40;99.90;;;;;;5020632;28;20041;-82
2021/12/20 22:30:38;;;;;;;10.85;3.88;;;0.40;99.90;;;;;;5016183;28;19910;-81
2021/12/20 22:33:04;;;;;;;;;;;0.40;99.90;;;;;;5019113;28;20019;-80
2021/12/20 22:35:30;;;;;;;8.23;2.88;;;0.40;99.90;;;;;;5020641;28;19908;-82
2021/12/20 22:37:55;;;;;;;;;;;0.40;99.90;;;;;;5020574;28;20010;-84
2021/12/20 22:40:24;;;;;;;8.05;3.08;;;0.30;99.90;;;;;;5020114;28;19920;-81
2021/12/20 22:42:50;;;;;;;7.85;3.22;;;0.30;99.90;;;;;;5020380;28;20011;-82
2021/12/20 22:45:16;;;;;;;;;;;0.30;99.90;;;;;;5019007;28;20018;-80
2021/12/20 22:47:42;;;;;;;12.75;4.78;;;0.20;99.90;;;;;;5018274;28;19901;-84
2021/12/20 22:50:08;;;;;;;;;;;0.10;99.90;;;;;;5018629;28;20037;-84
2021/12/20 22:52:35;;;;;;;18.48;6.25;;;0.10;99.90;;;;;;5018505;28;19921;-83
2021/12/20 22:55:03;;;;;;;11.82;4.38;;;0.10;99.90;;;;;;5017760;28;20053;-82
2021/12/20 22:57:30;;;;;;;15.18;5.75;;;-0.10;99.90;;;;;;5018895;28;20019;-82
2021/12/20 22:59:57;;;;;;;18.00;7.78;;;0.00;99.90;;;;;;5018547;28;20010;-84
2021/12/20 23:02:23;;;;;;;12.98;5.70;;;-0.20;99.90;;;;;;5019170;28;20057;-83
2021/12/20 23:04:48;;;;;;;15.68;6.13;;;-0.10;99.90;;;;;;5019293;28;20050;-83
2021/12/20 23:07:14;;;;;;;;;;;-0.20;99.90;;;;;;5019731;28;20027;-82
2021/12/20 23:09:41;;;;;;;9.63;3.42;;;-0.20;99.90;;;;;;5018520;28;19910;-84
2021/12/20 23:12:14;;;;;;;13.95;5.38;;;-0.20;99.90;;;;;;5018627;28;20010;-82
2021/12/20 23:14:41;;;;;;;14.48;5.72;;;-0.20;99.90;;;;;;5018868;28;20019;-82
2021/12/20 23:17:07;;;;;;;10.80;4.57;;;-0.20;99.90;;;;;;5018417;28;20035;-82
2021/12/20 23:19:32;;;;;;;;;;;-0.20;99.90;;;;;;5019388;28;20058;-83
2021/12/20 23:21:58;;;;;;;15.35;6.45;;;-0.20;99.90;;;;;;5018048;28;19941;-84
2021/12/20 23:24:24;;;;;;;19.83;7.78;;;-0.30;99.90;;;;;;5018649;28;20033;-83
2021/12/20 23:26:50;;;;;;;;;;;-0.40;99.90;;;;;;5016728;28;20010;-81
2021/12/20 23:29:16;;;;;;;18.80;7.15;;;-0.40;99.90;;;;;;5014396;28;19902;-81
2021/12/20 23:31:42;;;;;;;;;;;-0.40;99.90;;;;;;5013730;28;20400;-80
2021/12/20 23:34:08;;;;;;;7.13;2.55;;;-0.50;99.90;;;;;;5014150;28;19894;-82
2021/12/20 23:36:34;;;;;;;8.07;3.13;;;-0.50;99.90;;;;;;5013612;28;20061;-80
2021/12/20 23:39:11;;;;;;;34.75;11.85;;;-0.50;99.90;;;;;;5014139;28;20027;-81
2021/12/20 23:41:42;;;;;;;29.33;12.40;;;-0.50;99.90;;;;;;5013357;28;20022;-81
2021/12/20 23:44:09;;;;;;;32.55;13.40;;;-0.50;99.90;;;;;;5013157;28;20034;-82
2021/12/20 23:46:35;;;;;;;22.10;9.18;;;-0.60;99.90;;;;;;5018687;28;20030;-81
2021/12/20 23:49:01;;;;;;;;;;;-0.60;99.90;;;;;;5019580;28;20026;-82
2021/12/20 23:51:26;;;;;;;13.40;5.40;;;-0.60;99.90;;;;;;5019083;28;19910;-81
2021/12/20 23:53:52;;;;;;;;;;;-0.50;99.90;;;;;;5013915;28;20030;-82
2021/12/20 23:56:18;;;;;;;9.15;3.45;;;-0.50;99.90;;;;;;5015939;28;19956;-82
2021/12/20 23:58:44;;;;;;;;;;;-0.50;99.90;;;;;;5016766;28;20038;-82
